Time;durP1;ratioP1;P1;durP2;ratioP2;P2;SDS_P1;SDS_P2;PMS_P1;PMS_P2;Temp;Humidity;BMP_temperature;BMP_pressure;BME280_temperature;BME280_humidity;BME280_pressure;Samples;Min_cycle;Max_cycle;Signal;HPM_P1;HPM_P2
2021/04/17 16:14:27;;;;;;;3.90;2.90;;;10.00;57.70;;;;;;5131534;28;20398;-80
2021/04/17 16:16:55;;;;;;;4.03;2.90;;;10.10;57.40;;;;;;5131740;27;20415;-80
2021/04/17 16:19:22;;;;;;;3.33;2.80;;;9.90;59.40;;;;;;5131672;27;20446;-84
2021/04/17 16:21:49;;;;;;;6.20;2.10;;;9.80;59.20;;;;;;5131748;27;20791;-84
2021/04/17 16:24:17;;;;;;;3.27;2.97;;;9.70;59.70;;;;;;5131672;27;20526;-84
2021/04/17 16:26:44;;;;;;;3.20;2.27;;;9.70;59.30;;;;;;5131288;27;20969;-84
2021/04/17 16:29:13;;;;;;;3.67;3.23;;;9.80;59.30;;;;;;5131595;27;20409;-84
2021/04/17 16:31:40;;;;;;;7.77;3.27;;;9.80;59.60;;;;;;5131530;27;20491;-84
2021/04/17 16:34:07;;;;;;;3.17;2.70;;;9.80;59.60;;;;;;5131070;27;20982;-83
2021/04/17 16:36:34;;;;;;;4.00;2.70;;;9.70;60.00;;;;;;5131382;27;20491;-84
2021/04/17 16:39:01;;;;;;;5.70;3.07;;;9.70;60.00;;;;;;5131441;27;20423;-84
2021/04/17 16:41:29;;;;;;;3.93;3.00;;;9.70;60.00;;;;;;5131266;27;20453;-84
2021/04/17 16:43:55;;;;;;;4.17;2.60;;;9.70;60.70;;;;;;5131288;27;20480;-84
2021/04/17 16:46:21;;;;;;;4.20;3.80;;;9.60;60.90;;;;;;5130762;27;20506;-84
2021/04/17 16:48:47;;;;;;;3.00;2.50;;;9.60;61.10;;;;;;5131177;27;20427;-84
2021/04/17 16:51:14;;;;;;;4.70;2.97;;;9.50;63.70;;;;;;5130864;27;20920;-84
2021/04/17 16:53:40;;;;;;;3.90;3.60;;;9.50;61.90;;;;;;5131075;27;20827;-84
2021/04/17 16:56:07;;;;;;;3.37;3.10;;;9.40;62.10;;;;;;5130675;27;21045;-84
2021/04/17 16:58:34;;;;;;;3.80;3.50;;;9.30;63.20;;;;;;5131058;27;20450;-84
2021/04/17 17:01:00;;;;;;;6.80;5.77;;;9.30;63.60;;;;;;5131025;27;20430;-83
2021/04/17 17:03:27;;;;;;;3.87;3.57;;;9.30;63.20;;;;;;5131287;27;20435;-84
2021/04/17 17:05:53;;;;;;;3.23;3.00;;;9.50;61.80;;;;;;5131688;27;20462;-84
2021/04/17 17:08:19;;;;;;;3.20;3.00;;;9.40;61.80;;;;;;5131172;27;20486;-84
2021/04/17 17:10:45;;;;;;;5.90;2.57;;;9.40;62.30;;;;;;5130749;27;20458;-84
2021/04/17 17:13:12;;;;;;;9.53;7.90;;;9.30;62.30;;;;;;5130755;27;20450;-84
2021/04/17 17:15:39;;;;;;;6.27;5.67;;;9.30;62.80;;;;;;5130319;27;20462;-84
2021/04/17 17:18:06;;;;;;;6.30;5.70;;;9.20;62.90;;;;;;5128407;27;20461;-84
2021/04/17 17:20:32;;;;;;;8.47;7.67;;;9.20;62.50;;;;;;5116397;28;20450;-84
2021/04/17 17:22:58;;;;;;;4.17;2.80;;;9.30;62.60;;;;;;5116745;28;20447;-84
2021/04/17 17:25:25;;;;;;;4.33;3.93;;;9.10;62.80;;;;;;5116696;28;20539;-84
2021/04/17 17:27:51;;;;;;;6.33;5.83;;;9.20;63.10;;;;;;5116691;28;20482;-84
2021/04/17 17:30:18;;;;;;;8.60;7.80;;;9.20;63.30;;;;;;5117222;28;20458;-84
2021/04/17 17:32:45;;;;;;;9.53;8.17;;;9.10;64.00;;;;;;5116714;28;20439;-84
2021/04/17 17:35:13;;;;;;;7.50;6.77;;;9.00;64.20;;;;;;5116255;28;20985;-84
2021/04/17 17:37:40;;;;;;;10.87;8.37;;;9.00;64.80;;;;;;5116327;28;20454;-84
2021/04/17 17:40:08;;;;;;;5.67;5.17;;;9.00;65.20;;;;;;5116445;28;20451;-84
2021/04/17 17:42:35;;;;;;;3.53;3.23;;;8.90;66.20;;;;;;5116423;28;20508;-84
2021/04/17 17:45:01;;;;;;;4.70;4.20;;;8.90;67.10;;;;;;5116236;28;20478;-84
2021/04/17 17:47:27;;;;;;;4.83;2.90;;;8.70;68.70;;;;;;5116437;28;20475;-84
2021/04/17 17:49:58;;;;;;;4.70;2.97;;;8.60;68.20;;;;;;5115966;28;20945;-84
2021/04/17 17:52:28;;;;;;;3.10;2.77;;;8.60;68.30;;;;;;5116029;28;20918;-84
2021/04/17 17:54:54;;;;;;;3.23;2.80;;;8.50;69.50;;;;;;5116137;28;20553;-84
2021/04/17 17:57:21;;;;;;;2.80;2.57;;;8.40;71.10;;;;;;5116176;28;20447;-85
2021/04/17 17:59:47;;;;;;;3.53;3.03;;;8.40;70.30;;;;;;5116147;27;20963;-85
2021/04/17 18:02:14;;;;;;;4.50;2.80;;;8.30;71.40;;;;;;5116034;27;20450;-84
2021/04/17 18:04:40;;;;;;;8.67;3.50;;;8.20;71.20;;;;;;5115961;28;20463;-84
2021/04/17 18:07:07;;;;;;;3.90;3.50;;;8.30;71.60;;;;;;5115478;28;20493;-84
2021/04/17 18:09:33;;;;;;;3.70;2.70;;;8.20;71.30;;;;;;5115915;28;20458;-84
2021/04/17 18:12:01;;;;;;;3.77;2.60;;;8.10;71.80;;;;;;5115545;28;20961;-84
2021/04/17 18:14:27;;;;;;;3.87;3.00;;;8.10;72.20;;;;;;5115722;28;20475;-84
2021/04/17 18:16:53;;;;;;;4.57;3.77;;;8.10;72.40;;;;;;5115705;28;20438;-84
2021/04/17 18:19:20;;;;;;;3.67;3.37;;;8.00;73.30;;;;;;5115751;28;20770;-83
2021/04/17 18:21:46;;;;;;;5.07;3.90;;;7.90;74.00;;;;;;5115692;28;20447;-84
2021/04/17 18:24:13;;;;;;;4.67;4.20;;;7.80;76.30;;;;;;5115561;28;20446;-84
2021/04/17 18:26:39;;;;;;;4.23;3.80;;;7.70;78.00;;;;;;5115430;28;20447;-85
2021/04/17 18:29:05;;;;;;;5.60;5.00;;;7.60;79.60;;;;;;5115202;28;20965;-84
2021/04/17 18:31:32;;;;;;;4.77;3.97;;;7.60;80.80;;;;;;5114427;28;20536;-84
2021/04/17 18:33:58;;;;;;;10.93;4.53;;;7.50;82.70;;;;;;5115136;28;20436;-84
2021/04/17 18:36:26;;;;;;;4.10;3.70;;;7.30;84.00;;;;;;5115382;28;20491;-84
2021/04/17 18:38:53;;;;;;;5.90;5.30;;;7.20;85.50;;;;;;5116174;28;20478;-84
2021/04/17 18:41:20;;;;;;;6.63;4.93;;;7.10;87.40;;;;;;5114962;28;20993;-83
2021/04/17 18:43:46;;;;;;;4.80;4.00;;;7.10;88.70;;;;;;5115229;28;20447;-84
2021/04/17 18:46:13;;;;;;;6.80;3.73;;;7.00;90.20;;;;;;5115111;28;20554;-84
2021/04/17 18:48:39;;;;;;;7.43;5.00;;;6.90;91.10;;;;;;5114765;28;20859;-84
2021/04/17 18:51:06;;;;;;;7.83;3.90;;;6.90;92.10;;;;;;5115107;28;20964;-84
2021/04/17 18:53:32;;;;;;;5.60;4.20;;;6.90;93.20;;;;;;5115068;28;20455;-84
2021/04/17 18:56:00;;;;;;;6.17;5.67;;;6.90;94.40;;;;;;5114614;28;20467;-84
2021/04/17 18:58:27;;;;;;;8.70;6.43;;;6.90;95.40;;;;;;5115051;28;20442;-84
2021/04/17 19:00:54;;;;;;;6.40;5.40;;;6.90;96.30;;;;;;5114949;28;20448;-84
2021/04/17 19:03:20;;;;;;;8.43;6.97;;;6.90;97.30;;;;;;5114796;28;20502;-84
2021/04/17 19:05:46;;;;;;;6.53;5.83;;;6.90;98.40;;;;;;5114761;28;20467;-84
2021/04/17 19:08:12;;;;;;;6.47;5.40;;;6.80;99.80;;;;;;5114120;28;21061;-84
2021/04/17 19:10:39;;;;;;;7.60;4.80;;;6.70;99.90;;;;;;5114800;28;20451;-84
2021/04/17 19:13:05;;;;;;;7.67;5.43;;;6.70;99.90;;;;;;5114407;28;20450;-84
2021/04/17 19:15:34;;;;;;;7.93;4.47;;;6.60;99.90;;;;;;5114583;28;20466;-84
2021/04/17 19:18:03;;;;;;;6.90;4.53;;;6.60;99.90;;;;;;5114616;28;20537;-84
2021/04/17 19:20:31;;;;;;;6.60;5.20;;;6.50;99.90;;;;;;5114510;28;20443;-84
2021/04/17 19:22:58;;;;;;;5.33;4.37;;;6.40;99.90;;;;;;5114540;28;20447;-85
2021/04/17 19:25:25;;;;;;;4.90;3.70;;;6.30;99.90;;;;;;5114358;28;20539;-85
2021/04/17 19:27:52;;;;;;;5.90;4.23;;;6.20;99.90;;;;;;5114425;28;20616;-84
2021/04/17 19:30:19;;;;;;;5.13;4.53;;;6.00;99.90;;;;;;5114429;28;20435;-84
2021/04/17 19:32:47;;;;;;;8.83;7.90;;;6.00;99.90;;;;;;5114351;28;20443;-84
2021/04/17 19:35:13;;;;;;;5.20;4.70;;;5.90;99.90;;;;;;5114192;28;20482;-84
2021/04/17 19:37:40;;;;;;;6.43;5.77;;;6.00;99.90;;;;;;5114268;28;20435;-84
2021/04/17 19:40:08;;;;;;;7.07;5.70;;;6.00;99.90;;;;;;5114224;28;20447;-84
2021/04/17 19:42:35;;;;;;;6.03;4.60;;;6.00;99.90;;;;;;5113968;28;20447;-84
2021/04/17 19:45:01;;;;;;;5.90;5.10;;;6.00;99.90;;;;;;5114147;28;20463;-84
2021/04/17 19:47:27;;;;;;;10.13;5.03;;;6.00;99.90;;;;;;5114105;28;20474;-84
2021/04/17 19:49:54;;;;;;;6.10;4.37;;;6.10;99.90;;;;;;5114216;28;20949;-85
2021/04/17 19:52:21;;;;;;;4.67;3.80;;;6.20;99.90;;;;;;5114072;28;20766;-84
2021/04/17 19:54:47;;;;;;;5.77;4.00;;;6.20;99.90;;;;;;5113675;28;20965;-84
2021/04/17 19:57:13;;;;;;;5.50;4.70;;;6.20;99.90;;;;;;5113676;28;20439;-84
2021/04/17 19:59:39;;;;;;;5.57;5.00;;;6.10;99.90;;;;;;5114026;28;20447;-84
2021/04/17 20:02:07;;;;;;;5.90;4.33;;;6.20;99.90;;;;;;5114001;28;20447;-84
2021/04/17 20:04:33;;;;;;;8.23;7.40;;;6.10;99.90;;;;;;5113827;28;20469;-84
2021/04/17 20:07:01;;;;;;;6.70;6.10;;;6.10;99.90;;;;;;5113614;28;20502;-84
2021/04/17 20:09:27;;;;;;;7.83;6.37;;;6.10;99.90;;;;;;5113862;28;20476;-84
2021/04/17 20:11:54;;;;;;;4.67;4.07;;;6.00;99.90;;;;;;5113581;28;20929;-84
2021/04/17 20:14:20;;;;;;;6.83;5.27;;;5.90;99.90;;;;;;5113532;28;20455;-84
2021/04/17 20:16:46;;;;;;;5.37;4.87;;;5.90;99.90;;;;;;5113849;28;20480;-84
2021/04/17 20:19:12;;;;;;;4.77;4.07;;;5.90;99.90;;;;;;5113486;28;20810;-85
2021/04/17 20:21:39;;;;;;;6.73;5.00;;;5.90;99.90;;;;;;5113759;28;20439;-84
2021/04/17 20:24:08;;;;;;;5.23;4.73;;;5.90;99.90;;;;;;5114388;28;20447;-85
2021/04/17 20:26:34;;;;;;;5.20;4.50;;;5.80;99.90;;;;;;5113717;28;20449;-84
2021/04/17 20:29:00;;;;;;;6.30;5.37;;;5.90;99.90;;;;;;5113365;28;20531;-84
2021/04/17 20:31:30;;;;;;;5.90;5.30;;;5.80;99.90;;;;;;5113647;28;20466;-84
2021/04/17 20:33:58;;;;;;;5.50;5.00;;;5.80;99.90;;;;;;5113903;28;20503;-85
2021/04/17 20:36:24;;;;;;;4.10;3.80;;;5.80;99.90;;;;;;5113283;28;20562;-78
2021/04/17 20:38:50;;;;;;;3.93;3.63;;;5.80;99.90;;;;;;5113550;28;20447;-78
2021/04/17 20:41:17;;;;;;;5.87;3.70;;;5.80;99.90;;;;;;5113212;28;20443;-78
2021/04/17 20:43:44;;;;;;;6.40;4.27;;;5.80;99.90;;;;;;5113295;28;20898;-80
2021/04/17 20:46:10;;;;;;;5.47;4.43;;;5.70;99.90;;;;;;5113397;28;20557;-78
2021/04/17 20:48:36;;;;;;;6.13;5.63;;;5.60;99.90;;;;;;5113412;28;20527;-79
2021/04/17 20:51:03;;;;;;;4.50;4.10;;;5.60;99.90;;;;;;5113351;28;20502;-79
2021/04/17 20:53:30;;;;;;;4.97;3.83;;;5.50;99.90;;;;;;5113883;28;20491;-79
2021/04/17 20:55:56;;;;;;;8.37;4.57;;;5.50;99.90;;;;;;5116890;28;20475;-78
2021/04/17 20:58:23;;;;;;;5.37;4.67;;;5.50;99.90;;;;;;5117243;28;20840;-79
2021/04/17 21:00:50;;;;;;;5.30;4.00;;;5.50;99.90;;;;;;5117216;28;20512;-79
2021/04/17 21:03:17;;;;;;;4.23;3.50;;;5.50;99.90;;;;;;5117160;28;20455;-79
2021/04/17 21:05:43;;;;;;;5.80;4.07;;;5.30;99.90;;;;;;5117058;27;20519;-80
2021/04/17 21:08:11;;;;;;;6.70;4.60;;;5.20;99.90;;;;;;5116554;27;20840;-80
2021/04/17 21:10:37;;;;;;;5.53;4.50;;;5.10;99.90;;;;;;5116716;28;20797;-80
2021/04/17 21:13:03;;;;;;;5.30;4.80;;;5.00;99.90;;;;;;5116785;28;20799;-79
2021/04/17 21:15:30;;;;;;;5.00;4.50;;;4.90;99.90;;;;;;5116927;28;20459;-79
2021/04/17 21:17:57;;;;;;;5.77;4.60;;;4.90;99.90;;;;;;5116597;28;20443;-79
2021/04/17 21:20:23;;;;;;;6.63;4.70;;;4.90;99.90;;;;;;5116830;28;20454;-79
2021/04/17 21:22:49;;;;;;;5.70;4.90;;;4.80;99.90;;;;;;5116793;27;20442;-79
2021/04/17 21:25:16;;;;;;;6.63;5.63;;;4.70;99.90;;;;;;5116714;28;20471;-79
2021/04/17 21:27:42;;;;;;;6.37;5.27;;;4.70;99.90;;;;;;5116658;28;20489;-79
2021/04/17 21:30:09;;;;;;;9.33;4.63;;;4.80;99.90;;;;;;5116698;28;20443;-79
2021/04/17 21:32:37;;;;;;;6.87;5.70;;;4.80;99.90;;;;;;5116648;28;20454;-79
2021/04/17 21:35:03;;;;;;;6.63;5.00;;;4.70;99.90;;;;;;5116505;28;20458;-79
2021/04/17 21:37:30;;;;;;;6.50;5.27;;;4.70;99.90;;;;;;5116546;27;20443;-79
2021/04/17 21:39:56;;;;;;;7.93;6.00;;;4.70;99.90;;;;;;5116492;28;20443;-79
2021/04/17 21:42:22;;;;;;;6.70;5.80;;;4.60;99.90;;;;;;5116423;28;20447;-79
2021/04/17 21:44:49;;;;;;;10.20;6.00;;;4.70;99.90;;;;;;5116325;28;20531;-79
2021/04/17 21:47:15;;;;;;;7.03;6.17;;;4.70;99.90;;;;;;5116250;28;20485;-79
2021/04/17 21:49:42;;;;;;;7.70;5.63;;;4.70;99.90;;;;;;5116320;28;20447;-79
2021/04/17 21:52:08;;;;;;;8.03;5.70;;;4.70;99.90;;;;;;5116234;28;20443;-79
2021/04/17 21:54:35;;;;;;;8.50;6.60;;;4.80;99.90;;;;;;5116122;28;20458;-79
2021/04/17 21:57:01;;;;;;;6.50;5.90;;;4.70;99.90;;;;;;5116139;28;20451;-79
2021/04/17 21:59:27;;;;;;;6.70;5.90;;;4.80;99.90;;;;;;5116144;28;20432;-79
2021/04/17 22:01:54;;;;;;;10.17;6.40;;;4.80;99.90;;;;;;5116068;28;20466;-79
2021/04/17 22:04:20;;;;;;;7.07;5.83;;;4.70;99.90;;;;;;5116381;28;20478;-79
2021/04/17 22:06:47;;;;;;;8.80;6.50;;;4.80;99.90;;;;;;5115615;28;20494;-79
2021/04/17 22:09:13;;;;;;;8.37;7.10;;;4.80;99.90;;;;;;5115882;28;20473;-79
2021/04/17 22:11:40;;;;;;;6.13;5.53;;;4.80;99.90;;;;;;5115835;28;20426;-78
2021/04/17 22:14:06;;;;;;;7.27;5.90;;;4.80;99.90;;;;;;5115494;28;20436;-79
2021/04/17 22:16:32;;;;;;;7.73;6.10;;;4.80;99.90;;;;;;5116574;28;20454;-78
2021/04/17 22:18:58;;;;;;;6.87;6.17;;;4.70;99.90;;;;;;5115838;28;20526;-78
2021/04/17 22:21:25;;;;;;;9.40;6.37;;;4.70;99.90;;;;;;5115325;28;20532;-78
2021/04/17 22:23:52;;;;;;;8.70;7.00;;;4.70;99.90;;;;;;5115592;28;20447;-78
2021/04/17 22:26:18;;;;;;;8.57;7.50;;;4.70;99.90;;;;;;5115217;28;20455;-78
2021/04/17 22:28:45;;;;;;;8.30;7.20;;;4.60;99.90;;;;;;5115438;28;20544;-78
2021/04/17 22:31:11;;;;;;;8.07;6.20;;;4.60;99.90;;;;;;5115474;28;20802;-78
2021/04/17 22:33:37;;;;;;;8.37;7.07;;;4.60;99.90;;;;;;5115398;28;20446;-78
2021/04/17 22:36:05;;;;;;;9.50;7.60;;;4.60;99.90;;;;;;5115286;28;20467;-78
2021/04/17 22:38:31;;;;;;;8.90;7.33;;;4.60;99.90;;;;;;5115023;28;20479;-78
2021/04/17 22:40:58;;;;;;;7.53;6.80;;;4.60;99.90;;;;;;5115297;28;20454;-78
2021/04/17 22:43:25;;;;;;;12.90;7.10;;;4.70;99.90;;;;;;5115249;28;20450;-78
2021/04/17 22:45:51;;;;;;;7.77;6.77;;;4.70;99.90;;;;;;5115072;28;20453;-78
2021/04/17 22:48:17;;;;;;;7.00;6.30;;;4.60;99.90;;;;;;5114722;28;21062;-78
2021/04/17 22:50:44;;;;;;;8.10;7.30;;;4.60;99.90;;;;;;5115070;28;20447;-78
2021/04/17 22:53:12;;;;;;;6.20;5.60;;;4.60;99.90;;;;;;5114706;28;20801;-78
2021/04/17 22:55:39;;;;;;;7.67;6.60;;;4.60;99.90;;;;;;5114887;28;20459;-78
2021/04/17 22:58:07;;;;;;;7.03;6.33;;;4.50;99.90;;;;;;5114955;28;20492;-78
2021/04/17 23:00:33;;;;;;;8.63;7.07;;;4.50;99.90;;;;;;5114568;28;20957;-78
2021/04/17 23:03:00;;;;;;;8.20;7.17;;;4.50;99.90;;;;;;5114829;28;20418;-78
2021/04/17 23:05:26;;;;;;;7.70;6.90;;;4.50;99.90;;;;;;5114417;28;21007;-78
2021/04/17 23:07:52;;;;;;;7.57;6.87;;;4.50;99.90;;;;;;5114267;28;20494;-78
2021/04/17 23:10:24;;;;;;;7.73;6.40;;;4.50;99.90;;;;;;5114711;28;20443;-78
2021/04/17 23:12:51;;;;;;;8.10;7.30;;;4.50;99.90;;;;;;5114712;28;20438;-78
2021/04/17 23:15:19;;;;;;;7.80;5.93;;;4.50;99.90;;;;;;5114220;28;20993;-78
2021/04/17 23:17:46;;;;;;;12.43;7.00;;;4.50;99.90;;;;;;5113774;28;20908;-78
2021/04/17 23:20:14;;;;;;;7.80;6.53;;;4.50;99.90;;;;;;5114552;28;20449;-78
2021/04/17 23:22:41;;;;;;;7.93;6.73;;;4.50;99.90;;;;;;5114763;28;20765;-82
2021/04/17 23:25:09;;;;;;;8.30;7.37;;;4.40;99.90;;;;;;5114325;28;20497;-82
2021/04/17 23:27:36;;;;;;;8.17;7.00;;;4.40;99.90;;;;;;5114334;28;20485;-82
2021/04/17 23:30:03;;;;;;;10.07;7.13;;;4.40;99.90;;;;;;5114435;28;20466;-82
2021/04/17 23:32:30;;;;;;;8.70;6.83;;;4.30;99.90;;;;;;5114365;28;20450;-82
2021/04/17 23:34:56;;;;;;;11.33;7.80;;;4.40;99.90;;;;;;5114215;28;20527;-82
2021/04/17 23:37:24;;;;;;;8.23;7.23;;;4.40;99.90;;;;;;5114272;28;20439;-79
2021/04/17 23:39:50;;;;;;;10.07;7.73;;;4.40;99.90;;;;;;5113916;28;20490;-79
2021/04/17 23:42:16;;;;;;;7.60;6.90;;;4.40;99.90;;;;;;5114196;28;20637;-78
2021/04/17 23:44:43;;;;;;;10.43;7.20;;;4.40;99.90;;;;;;5113803;28;21065;-78
2021/04/17 23:47:09;;;;;;;7.70;7.00;;;4.40;99.90;;;;;;5114047;28;20443;-78
2021/04/17 23:49:36;;;;;;;7.67;6.87;;;4.50;99.90;;;;;;5113824;28;20938;-79
2021/04/17 23:52:03;;;;;;;8.73;6.80;;;4.50;99.90;;;;;;5114064;28;20820;-79
2021/04/17 23:54:29;;;;;;;9.60;7.73;;;4.60;99.90;;;;;;5113956;28;20470;-78
2021/04/17 23:56:55;;;;;;;8.50;7.47;;;4.50;99.90;;;;;;5114025;28;20809;-79
2021/04/17 23:59:21;;;;;;;8.77;6.90;;;4.50;99.90;;;;;;5113944;28;20447;-79
